createdAt,value
2022-08-11T00:00:48.509Z,1.55
2022-08-11T00:02:36.707Z,1.73
2022-08-11T00:04:12.289Z,1.63
2022-08-11T00:05:48.118Z,1.98
2022-08-11T00:07:20.922Z,1.75
2022-08-11T00:08:56.304Z,1.75
2022-08-11T00:10:31.953Z,2.00
2022-08-11T00:12:14.746Z,1.80
2022-08-11T00:13:51.421Z,1.52
2022-08-11T00:15:26.616Z,2.00
2022-08-11T00:17:03.709Z,1.48
2022-08-11T00:18:44.604Z,1.60
2022-08-11T00:20:19.788Z,1.77
2022-08-11T00:22:05.274Z,1.88
2022-08-11T00:23:46.485Z,1.52
2022-08-11T00:25:22.783Z,1.58
2022-08-11T00:26:56.914Z,1.60
2022-08-11T00:28:33.045Z,1.90
2022-08-11T00:30:09.371Z,2.08
2022-08-11T00:31:50.621Z,1.60
2022-08-11T00:33:44.249Z,1.58
2022-08-11T00:35:56.230Z,1.85
2022-08-11T00:37:23.738Z,1.80
2022-08-11T00:39:06.806Z,1.50
2022-08-11T00:40:51.936Z,1.90
2022-08-11T00:42:44.781Z,2.30
2022-08-11T00:44:43.253Z,1.67
2022-08-11T00:46:36.346Z,1.45
2022-08-11T00:48:27.737Z,1.60
2022-08-11T00:50:14.590Z,2.03
2022-08-11T00:52:14.538Z,1.40
2022-08-11T00:54:06.964Z,1.70
2022-08-11T00:57:37.046Z,1.98
2022-08-11T01:00:10.866Z,1.70
2022-08-11T01:02:20.076Z,1.77
2022-08-11T01:04:35.583Z,2.00
2022-08-11T01:06:50.681Z,1.90
2022-08-11T01:09:26.130Z,1.63
2022-08-11T01:11:55.474Z,1.63
2022-08-11T01:14:34.514Z,1.63
2022-08-11T01:16:50.833Z,1.90
2022-08-11T01:20:39.466Z,1.90
2022-08-11T01:22:51.802Z,1.77
2022-08-11T01:25:22.466Z,1.48
2022-08-11T01:27:26.646Z,1.80
2022-08-11T01:30:16.914Z,1.80
2022-08-11T01:32:41.474Z,2.00
2022-08-11T01:34:55.994Z,1.70
2022-08-11T01:37:05.887Z,1.67
2022-08-11T01:39:18.352Z,2.05
2022-08-11T01:41:51.431Z,1.95
2022-08-11T01:44:39.015Z,2.10
2022-08-11T01:46:19.434Z,2.10
2022-08-11T01:48:06.857Z,1.85
2022-08-11T01:50:08.854Z,2.10
2022-08-11T01:52:07.193Z,2.00
2022-08-11T01:53:55.443Z,1.73
2022-08-11T01:55:42.280Z,2.20
2022-08-11T01:57:32.799Z,2.15
2022-08-11T01:59:18.049Z,2.10
2022-08-11T02:01:15.291Z,2.15
2022-08-11T02:03:01.753Z,2.03
2022-08-11T02:04:47.135Z,1.90
2022-08-11T02:06:54.637Z,2.00
2022-08-11T02:08:50.519Z,1.80
2022-08-11T02:10:53.096Z,1.85
2022-08-11T02:12:51.203Z,2.00
2022-08-11T02:14:35.351Z,2.42
2022-08-11T02:16:27.821Z,2.22
2022-08-11T02:18:11.545Z,2.20
2022-08-11T02:20:15.392Z,2.25
2022-08-11T02:22:21.221Z,2.27
2022-08-11T02:24:07.876Z,2.25
2022-08-11T02:25:54.933Z,2.70
2022-08-11T02:27:42.550Z,1.85
2022-08-11T02:29:26.090Z,2.42
2022-08-11T02:32:17.162Z,2.20
2022-08-11T02:33:34.480Z,2.10
2022-08-11T02:35:24.051Z,1.88
2022-08-11T02:37:16.347Z,2.30
2022-08-11T02:39:07.969Z,2.17
2022-08-11T02:40:53.950Z,2.03
2022-08-11T02:42:42.235Z,2.23
2022-08-11T02:44:32.257Z,2.27
2022-08-11T02:46:24.459Z,2.30
2022-08-11T02:48:31.605Z,2.00
2022-08-11T02:50:20.187Z,2.23
2022-08-11T02:52:15.389Z,2.37
2022-08-11T02:54:07.802Z,2.20
2022-08-11T02:56:03.922Z,2.33
2022-08-11T02:57:48.572Z,2.40
2022-08-11T03:00:21.367Z,2.60
2022-08-11T03:02:08.467Z,2.60
2022-08-11T03:03:54.595Z,2.10
2022-08-11T03:05:50.441Z,2.33
2022-08-11T03:07:35.757Z,2.00
2022-08-11T03:09:24.577Z,2.20
2022-08-11T03:11:26.112Z,2.27
2022-08-11T03:13:30.029Z,2.60
2022-08-11T03:15:30.447Z,2.77
2022-08-11T03:17:22.720Z,2.47
2022-08-11T03:19:12.540Z,2.63
2022-08-11T03:20:59.189Z,2.40
2022-08-11T03:22:49.682Z,2.40
2022-08-11T03:24:30.373Z,2.40
2022-08-11T03:26:14.962Z,2.57
2022-08-11T03:27:59.138Z,2.67
2022-08-11T03:29:46.124Z,2.60
2022-08-11T03:31:28.471Z,2.40
2022-08-11T03:33:43.198Z,2.67
2022-08-11T03:35:21.518Z,2.40
2022-08-11T03:37:45.251Z,3.10
2022-08-11T03:39:34.143Z,2.47
2022-08-11T03:42:02.302Z,2.60
2022-08-11T03:43:58.768Z,2.83
2022-08-11T03:45:49.123Z,2.53
2022-08-11T03:47:54.995Z,2.50
2022-08-11T03:49:49.098Z,2.93
2022-08-11T03:51:51.808Z,2.87
2022-08-11T03:53:56.497Z,3.00
2022-08-11T03:56:21.176Z,2.70
2022-08-11T03:58:48.420Z,2.80
2022-08-11T04:01:18.186Z,2.80
2022-08-11T04:03:54.239Z,3.17
2022-08-11T04:06:28.528Z,2.80
2022-08-11T04:08:49.985Z,2.73
2022-08-11T04:11:09.824Z,3.20
2022-08-11T04:13:29.787Z,2.80
2022-08-11T04:15:46.453Z,3.17
2022-08-11T04:18:20.751Z,3.07
2022-08-11T04:20:52.597Z,3.00
2022-08-11T04:24:36.727Z,3.27
2022-08-11T04:25:58.384Z,2.63
2022-08-11T04:28:31.340Z,2.97
2022-08-11T04:30:14.743Z,3.30
2022-08-11T04:32:09.393Z,3.30
2022-08-11T04:34:27.176Z,3.40
2022-08-11T04:36:50.189Z,3.03
2022-08-11T04:39:12.190Z,3.40
2022-08-11T04:41:26.843Z,3.70
2022-08-11T04:44:08.002Z,3.33
2022-08-11T04:46:02.595Z,3.43
2022-08-11T04:48:13.650Z,3.40
2022-08-11T04:50:20.374Z,3.57
2022-08-11T04:52:42.092Z,3.33
2022-08-11T04:54:50.458Z,2.83
2022-08-11T04:56:44.977Z,3.00
2022-08-11T04:58:51.146Z,3.13
2022-08-11T05:00:51.627Z,3.27
2022-08-11T05:03:27.542Z,3.50
2022-08-11T05:05:31.153Z,3.20
2022-08-11T05:08:12.346Z,3.10
2022-08-11T05:10:20.013Z,3.73
2022-08-11T05:12:36.993Z,3.27
2022-08-11T05:14:51.964Z,3.57
2022-08-11T05:16:51.483Z,3.03
2022-08-11T05:18:47.578Z,3.43
2022-08-11T05:20:43.733Z,3.47
2022-08-11T05:22:40.332Z,3.20
2022-08-11T05:24:40.428Z,3.47
2022-08-11T05:26:47.815Z,3.40
2022-08-11T05:28:53.143Z,3.30
2022-08-11T05:30:49.481Z,3.40
2022-08-11T05:32:44.100Z,3.40
2022-08-11T05:34:42.336Z,3.37
2022-08-11T05:36:27.451Z,3.10
2022-08-11T05:38:19.449Z,3.47
2022-08-11T05:40:16.124Z,3.50
2022-08-11T05:42:09.144Z,3.50
2022-08-11T05:44:22.865Z,3.30
2022-08-11T05:46:20.171Z,3.33
2022-08-11T05:48:12.075Z,3.77
2022-08-11T05:50:13.524Z,4.00
2022-08-11T05:52:12.937Z,3.47
2022-08-11T05:54:28.580Z,3.37
2022-08-11T05:56:20.364Z,4.00
2022-08-11T05:57:59.323Z,3.50
2022-08-11T05:59:34.587Z,3.63
2022-08-11T06:01:10.459Z,3.40
2022-08-11T06:02:45.404Z,3.67
2022-08-11T06:04:25.041Z,3.57
2022-08-11T06:06:00.307Z,3.40
2022-08-11T06:07:49.220Z,3.43
2022-08-11T06:09:28.001Z,3.30
2022-08-11T06:11:05.172Z,3.70
2022-08-11T06:12:40.825Z,3.88
2022-08-11T06:14:15.557Z,3.75
2022-08-11T06:15:52.963Z,3.50
2022-08-11T06:17:38.508Z,3.93
2022-08-11T06:19:12.580Z,3.30
2022-08-11T06:20:49.478Z,3.72
2022-08-11T06:22:23.820Z,3.45
2022-08-11T06:24:00.614Z,3.42
2022-08-11T06:25:36.670Z,3.15
2022-08-11T06:27:13.078Z,3.35
2022-08-11T06:28:49.328Z,3.20
2022-08-11T06:30:39.667Z,3.45
2022-08-11T06:32:15.609Z,3.33
2022-08-11T06:34:10.380Z,2.95
2022-08-11T06:35:58.394Z,3.55
2022-08-11T06:37:48.528Z,3.33
2022-08-11T06:39:30.112Z,3.50
2022-08-11T06:41:34.270Z,2.90
2022-08-11T06:43:20.236Z,3.00
2022-08-11T06:45:08.291Z,3.13
2022-08-11T06:46:44.373Z,3.60
2022-08-11T06:48:23.169Z,2.75
2022-08-11T06:50:19.354Z,3.83
2022-08-11T06:51:51.996Z,2.97
2022-08-11T06:53:25.797Z,3.15
2022-08-11T06:55:11.358Z,3.53
2022-08-11T06:57:31.040Z,3.47
2022-08-11T06:59:22.579Z,2.90
2022-08-11T07:01:01.645Z,2.75
2022-08-11T07:02:44.220Z,2.60
2022-08-11T07:04:30.350Z,3.17
2022-08-11T07:06:24.193Z,2.78
2022-08-11T07:09:23.405Z,2.65
2022-08-11T07:11:46.163Z,2.80
2022-08-11T07:13:45.655Z,2.55
2022-08-11T07:16:10.741Z,2.58
2022-08-11T07:17:39.340Z,2.97
2022-08-11T07:19:36.418Z,2.60
2022-08-11T07:22:00.132Z,2.63
2022-08-11T07:24:02.964Z,3.25
2022-08-11T07:25:59.863Z,2.60
2022-08-11T07:28:01.487Z,2.45
2022-08-11T07:29:39.066Z,2.63
2022-08-11T07:31:17.926Z,2.33
2022-08-11T07:32:56.142Z,2.28
2022-08-11T07:34:37.268Z,2.50
2022-08-11T07:36:15.581Z,2.75
2022-08-11T07:38:02.125Z,2.65
2022-08-11T07:39:40.024Z,2.45
2022-08-11T07:41:17.265Z,2.47
2022-08-11T07:42:52.471Z,2.38
2022-08-11T07:44:34.724Z,2.00
2022-08-11T07:46:28.763Z,2.90
2022-08-11T07:48:21.638Z,2.50
2022-08-11T07:50:14.210Z,2.80
2022-08-11T07:52:08.740Z,2.40
2022-08-11T07:53:58.712Z,2.17
2022-08-11T07:55:51.058Z,2.33
2022-08-11T07:58:13.685Z,2.28
2022-08-11T08:00:04.087Z,2.10
2022-08-11T08:02:26.454Z,2.20
2022-08-11T08:04:20.656Z,1.80
2022-08-11T08:06:28.549Z,2.03
2022-08-11T08:08:27.295Z,1.67
2022-08-11T08:10:19.019Z,1.98
2022-08-11T08:12:11.203Z,1.70
2022-08-11T08:14:02.786Z,2.00
2022-08-11T08:15:55.047Z,1.88
2022-08-11T08:18:08.949Z,1.88
2022-08-11T08:19:44.835Z,1.40
2022-08-11T08:21:18.642Z,2.00
2022-08-11T08:22:56.957Z,1.70
2022-08-11T08:24:32.738Z,2.13
2022-08-11T08:26:30.020Z,1.90
2022-08-11T08:28:08.291Z,1.50
2022-08-11T08:30:01.911Z,1.80
2022-08-11T08:31:35.721Z,1.70
2022-08-11T08:33:13.181Z,1.60
2022-08-11T08:34:47.954Z,1.70
2022-08-11T08:36:25.392Z,1.70
2022-08-11T08:38:00.789Z,1.50
2022-08-11T08:39:37.634Z,1.52
2022-08-11T08:41:16.409Z,1.65
2022-08-11T08:42:56.120Z,1.30
2022-08-11T08:44:39.259Z,1.10
2022-08-11T08:46:16.547Z,1.10
2022-08-11T08:47:58.671Z,1.15
2022-08-11T08:49:40.644Z,1.63
2022-08-11T08:51:33.639Z,1.33
2022-08-11T08:53:33.126Z,0.98
2022-08-11T08:55:10.238Z,1.40
2022-08-11T08:56:46.618Z,1.20
2022-08-11T08:58:24.989Z,1.40
2022-08-11T09:00:00.605Z,1.23
2022-08-11T09:01:42.259Z,1.50
2022-08-11T09:03:41.818Z,1.35
2022-08-11T09:05:12.895Z,1.42
2022-08-11T09:06:48.770Z,1.25
2022-08-11T09:08:27.490Z,1.40
2022-08-11T09:10:01.495Z,1.58
2022-08-11T09:11:54.243Z,1.33
2022-08-11T09:13:28.991Z,1.13
2022-08-11T09:15:09.960Z,1.50
2022-08-11T09:16:44.943Z,1.48
2022-08-11T09:18:29.306Z,1.52
2022-08-11T09:20:09.450Z,1.50
2022-08-11T09:22:11.769Z,1.33
2022-08-11T09:24:11.275Z,1.30
2022-08-11T09:26:09.541Z,1.13
2022-08-11T09:27:50.220Z,1.50
2022-08-11T09:29:25.080Z,1.50
2022-08-11T09:31:02.056Z,1.42
2022-08-11T09:32:37.303Z,1.42
2022-08-11T09:34:11.989Z,1.35
2022-08-11T09:35:48.336Z,1.33
2022-08-11T09:37:54.760Z,1.40
2022-08-11T09:39:49.065Z,1.23
2022-08-11T09:41:25.548Z,1.58
2022-08-11T09:43:19.832Z,1.40
2022-08-11T09:44:54.541Z,1.55
2022-08-11T09:46:30.935Z,1.65
2022-08-11T09:48:07.071Z,1.65
2022-08-11T09:49:42.913Z,1.58
2022-08-11T09:51:18.694Z,1.40
2022-08-11T09:53:34.934Z,1.42
2022-08-11T09:54:50.344Z,1.63
2022-08-11T09:56:44.141Z,1.70
2022-08-11T09:58:41.601Z,1.50
2022-08-11T10:00:15.852Z,1.60
2022-08-11T10:01:57.158Z,1.48
2022-08-11T10:03:40.279Z,1.50
2022-08-11T10:05:37.093Z,1.30
2022-08-11T10:07:14.500Z,1.63
2022-08-11T10:08:54.111Z,1.38
2022-08-11T10:10:28.533Z,1.25
2022-08-11T10:12:04.778Z,1.50
2022-08-11T10:14:33.682Z,1.40
2022-08-11T10:16:15.908Z,1.50
2022-08-11T10:18:14.778Z,1.23
2022-08-11T10:20:05.397Z,1.40
2022-08-11T10:22:10.102Z,1.35
2022-08-11T10:24:05.989Z,1.70
2022-08-11T10:26:17.405Z,1.42
2022-08-11T10:28:30.404Z,1.40
2022-08-11T10:30:20.293Z,1.30
2022-08-11T10:32:21.707Z,1.52
2022-08-11T10:34:04.836Z,1.58
2022-08-11T10:35:39.592Z,1.33
2022-08-11T10:37:15.707Z,1.50
2022-08-11T10:38:52.230Z,1.52
2022-08-11T10:40:26.807Z,1.50
2022-08-11T10:42:41.476Z,1.50
2022-08-11T10:44:16.055Z,1.58
2022-08-11T10:46:07.441Z,1.40
2022-08-11T10:47:47.742Z,1.70
2022-08-11T10:49:24.535Z,1.30
2022-08-11T10:51:14.081Z,1.48
2022-08-11T10:53:09.007Z,1.23
2022-08-11T10:55:01.295Z,1.20
2022-08-11T10:56:57.941Z,1.65
2022-08-11T10:58:49.168Z,1.25
2022-08-11T11:00:24.215Z,1.58
2022-08-11T11:02:01.970Z,1.48
2022-08-11T11:03:37.787Z,1.40
2022-08-11T11:05:17.818Z,1.30
2022-08-11T11:07:00.350Z,1.45
2022-08-11T11:08:58.792Z,1.48
2022-08-11T11:10:34.275Z,1.77
2022-08-11T11:12:32.559Z,1.60
2022-08-11T11:14:24.157Z,1.85
2022-08-11T11:16:19.023Z,1.75
2022-08-11T11:17:57.603Z,1.52
2022-08-11T11:19:32.012Z,1.40
2022-08-11T11:21:09.692Z,1.60
2022-08-11T11:22:48.039Z,1.55
2022-08-11T11:24:43.419Z,1.58
2022-08-11T11:26:42.008Z,1.40
2022-08-11T11:28:35.310Z,1.45
2022-08-11T11:30:12.339Z,1.30
2022-08-11T11:32:00.217Z,1.55
2022-08-11T11:34:12.226Z,1.30
2022-08-11T11:36:06.739Z,1.55
2022-08-11T11:38:03.439Z,1.60
2022-08-11T11:39:39.541Z,1.42
2022-08-11T11:41:26.280Z,1.17
2022-08-11T11:43:02.469Z,1.38
2022-08-11T11:44:38.827Z,1.45
2022-08-11T11:46:13.799Z,1.73
2022-08-11T11:47:52.358Z,1.50
2022-08-11T11:49:32.521Z,1.40
2022-08-11T11:51:07.302Z,1.40
2022-08-11T11:52:42.089Z,1.70
2022-08-11T11:54:17.212Z,1.48
2022-08-11T11:55:53.799Z,1.40
2022-08-11T11:57:59.359Z,1.65
2022-08-11T11:59:53.759Z,1.42
2022-08-11T12:01:28.593Z,1.30
2022-08-11T12:03:05.877Z,1.58
2022-08-11T12:04:45.215Z,1.50
2022-08-11T12:06:22.152Z,1.70
2022-08-11T12:08:15.201Z,1.42
2022-08-11T12:09:50.247Z,1.25
2022-08-11T12:11:46.422Z,1.52
2022-08-11T12:13:37.766Z,1.50
2022-08-11T12:15:12.996Z,1.38
2022-08-11T12:16:48.958Z,1.63
2022-08-11T12:18:22.813Z,1.45
2022-08-11T12:19:57.261Z,1.20
2022-08-11T12:21:32.243Z,1.40
2022-08-11T12:23:24.823Z,1.77
2022-08-11T12:25:16.114Z,1.80
2022-08-11T12:27:15.966Z,1.40
2022-08-11T12:28:51.994Z,1.60
2022-08-11T12:30:26.451Z,1.30
2022-08-11T12:32:00.484Z,1.40
2022-08-11T12:33:35.142Z,1.48
2022-08-11T12:35:11.669Z,1.58
2022-08-11T12:36:56.089Z,1.08
2022-08-11T12:38:30.695Z,1.67
2022-08-11T12:40:43.181Z,1.55
2022-08-11T12:42:41.964Z,1.40
2022-08-11T12:44:37.022Z,1.40
2022-08-11T12:46:20.470Z,1.60
2022-08-11T12:48:59.589Z,1.50
2022-08-11T12:50:26.361Z,1.52
2022-08-11T12:52:14.954Z,1.60
2022-08-11T12:53:58.627Z,1.50
2022-08-11T12:56:03.966Z,1.20
2022-08-11T12:58:03.660Z,1.20
2022-08-11T12:59:55.988Z,1.55
2022-08-11T13:01:47.663Z,1.52
2022-08-11T13:03:40.747Z,1.52
2022-08-11T13:05:16.920Z,1.50
2022-08-11T13:06:51.612Z,1.55
2022-08-11T13:08:27.763Z,1.40
2022-08-11T13:10:05.138Z,1.40
2022-08-11T13:11:58.864Z,1.48
2022-08-11T13:13:54.134Z,1.45
2022-08-11T13:15:27.759Z,1.40
2022-08-11T13:17:19.609Z,1.30
2022-08-11T13:18:54.212Z,1.55
2022-08-11T13:20:29.019Z,1.42
2022-08-11T13:22:05.242Z,1.30
2022-08-11T13:23:41.418Z,1.60
2022-08-11T13:25:35.347Z,1.55
2022-08-11T13:27:12.466Z,1.52
2022-08-11T13:28:47.459Z,1.65
2022-08-11T13:30:46.735Z,1.02
2022-08-11T13:32:26.223Z,1.35
2022-08-11T13:34:01.741Z,1.40
2022-08-11T13:35:36.654Z,1.38
2022-08-11T13:37:14.478Z,1.40
2022-08-11T13:38:50.969Z,1.40
2022-08-11T13:40:33.281Z,1.60
2022-08-11T13:42:22.250Z,1.20
2022-08-11T13:43:58.327Z,1.25
2022-08-11T13:45:31.886Z,1.05
2022-08-11T13:47:08.829Z,1.08
2022-08-11T13:48:43.211Z,1.30
2022-08-11T13:50:18.531Z,1.08
2022-08-11T13:51:53.027Z,1.55
2022-08-11T13:53:30.384Z,1.50
2022-08-11T13:55:04.698Z,1.20
2022-08-11T13:56:43.387Z,1.40
2022-08-11T13:58:40.142Z,1.17
2022-08-11T14:00:24.948Z,1.42
2022-08-11T14:02:28.828Z,1.08
2022-08-11T14:04:29.002Z,1.30
2022-08-11T14:06:08.332Z,1.10
2022-08-11T14:07:50.679Z,1.08
2022-08-11T14:09:28.617Z,0.98
2022-08-11T14:12:23.868Z,1.20
2022-08-11T14:13:42.266Z,1.40
2022-08-11T14:15:28.718Z,1.25
2022-08-11T14:17:09.798Z,1.50
2022-08-11T14:18:48.539Z,1.48
2022-08-11T14:20:38.441Z,1.30
2022-08-11T14:22:16.313Z,1.50
2022-08-11T14:23:55.070Z,1.52
2022-08-11T14:26:00.493Z,1.15
2022-08-11T14:28:29.586Z,1.40
2022-08-11T14:29:28.099Z,1.35
2022-08-11T14:31:05.185Z,1.88
2022-08-11T14:32:45.487Z,1.45
2022-08-11T14:34:30.343Z,1.30
2022-08-11T14:36:06.014Z,1.38
2022-08-11T14:37:41.003Z,1.35
2022-08-11T14:39:19.273Z,1.50
2022-08-11T14:41:12.097Z,1.35
2022-08-11T14:43:03.168Z,1.33
2022-08-11T14:44:56.719Z,1.38
2022-08-11T14:46:51.326Z,1.55
2022-08-11T14:48:25.055Z,1.40
2022-08-11T14:50:10.253Z,1.48
2022-08-11T14:51:47.877Z,1.25
2022-08-11T14:53:24.394Z,1.52
2022-08-11T14:55:16.267Z,1.42
2022-08-11T14:56:49.103Z,1.20
2022-08-11T14:58:26.252Z,1.40
2022-08-11T15:00:03.844Z,1.20
2022-08-11T15:01:56.630Z,1.23
2022-08-11T15:03:34.514Z,1.27
2022-08-11T15:05:08.522Z,1.30
2022-08-11T15:06:42.942Z,1.27
2022-08-11T15:08:18.514Z,1.15
2022-08-11T15:12:03.118Z,1.35
2022-08-11T15:13:38.964Z,1.75
2022-08-11T15:15:31.426Z,1.35
2022-08-11T15:17:09.768Z,1.52
2022-08-11T15:18:43.341Z,1.15
2022-08-11T15:20:37.715Z,1.40
2022-08-11T15:22:29.396Z,1.48
2022-08-11T15:24:21.214Z,1.40
2022-08-11T15:25:59.684Z,1.17
2022-08-11T15:28:01.192Z,1.55
2022-08-11T15:29:56.355Z,1.30
2022-08-11T15:31:50.176Z,1.45
2022-08-11T15:33:46.806Z,1.30
2022-08-11T15:35:46.711Z,1.50
2022-08-11T15:37:27.165Z,1.50
2022-08-11T15:39:04.227Z,1.40
2022-08-11T15:41:04.727Z,1.40
2022-08-11T15:43:06.156Z,1.67
2022-08-11T15:45:17.362Z,1.40
2022-08-11T15:46:56.362Z,1.30
2022-08-11T15:48:46.362Z,1.75
2022-08-11T15:50:22.238Z,1.70
2022-08-11T15:52:04.437Z,1.48
2022-08-11T15:53:56.757Z,1.92
2022-08-11T15:55:33.852Z,1.30
2022-08-11T15:57:08.986Z,1.42
2022-08-11T15:59:10.728Z,1.20
2022-08-11T16:01:21.965Z,1.70
2022-08-11T16:03:16.940Z,1.13
2022-08-11T16:04:55.071Z,1.48
2022-08-11T16:06:29.489Z,1.38
2022-08-11T16:08:05.472Z,1.63
2022-08-11T16:09:51.910Z,1.45
2022-08-11T16:11:28.983Z,1.52
2022-08-11T16:13:24.115Z,1.60
2022-08-11T16:15:20.756Z,1.40
2022-08-11T16:16:58.004Z,2.10
2022-08-11T16:18:41.646Z,1.30
2022-08-11T16:20:21.462Z,1.50
2022-08-11T16:21:57.580Z,1.58
2022-08-11T16:23:31.087Z,1.40
2022-08-11T16:27:02.078Z,1.40
2022-08-11T16:27:13.463Z,1.70
2022-08-11T16:28:50.141Z,2.20
2022-08-11T16:30:28.073Z,1.80
2022-08-11T16:32:18.939Z,1.75
2022-08-11T16:33:55.270Z,1.55
2022-08-11T16:35:49.167Z,1.75
2022-08-11T16:37:42.183Z,1.88
2022-08-11T16:39:18.518Z,1.95
2022-08-11T16:40:55.426Z,1.83
2022-08-11T16:43:00.189Z,1.60
2022-08-11T16:44:58.182Z,1.90
2022-08-11T16:46:50.685Z,2.10
2022-08-11T16:48:35.830Z,1.58
2022-08-11T16:50:12.269Z,1.80
2022-08-11T16:51:48.695Z,1.85
2022-08-11T16:53:22.346Z,1.95
2022-08-11T16:55:52.208Z,1.67
2022-08-11T16:57:30.399Z,1.70
2022-08-11T16:59:18.086Z,1.95
2022-08-11T17:00:51.912Z,1.80
2022-08-11T17:02:51.741Z,1.88
2022-08-11T17:05:02.115Z,1.73
2022-08-11T17:06:57.143Z,2.00
2022-08-11T17:08:56.934Z,1.60
2022-08-11T17:11:03.826Z,1.73
2022-08-11T17:13:00.231Z,1.88
2022-08-11T17:14:41.111Z,1.48
2022-08-11T17:16:20.775Z,2.05
2022-08-11T17:17:56.571Z,2.25
2022-08-11T17:20:40.172Z,2.00
2022-08-11T17:21:33.564Z,1.80
2022-08-11T17:23:40.970Z,1.70
2022-08-11T17:25:18.440Z,2.05
2022-08-11T17:26:56.875Z,1.70
2022-08-11T17:28:32.466Z,2.10
2022-08-11T17:30:08.607Z,2.40
2022-08-11T17:32:00.463Z,1.80
2022-08-11T17:33:54.050Z,1.92
2022-08-11T17:35:34.271Z,2.03
2022-08-11T17:37:10.634Z,1.77
2022-08-11T17:38:48.392Z,1.70
2022-08-11T17:40:26.044Z,1.90
2022-08-11T17:42:18.892Z,2.20
2022-08-11T17:44:12.510Z,1.52
2022-08-11T17:46:06.131Z,1.77
2022-08-11T17:48:00.542Z,1.77
2022-08-11T17:49:37.255Z,1.95
2022-08-11T17:51:35.854Z,1.85
2022-08-11T17:53:29.857Z,1.70
2022-08-11T17:55:50.959Z,1.85
2022-08-11T17:57:37.386Z,1.55
2022-08-11T17:59:32.479Z,1.77
2022-08-11T18:01:09.942Z,2.15
2022-08-11T18:03:03.727Z,1.85
2022-08-11T18:04:37.476Z,1.70
2022-08-11T18:06:15.343Z,1.73
2022-08-11T18:08:11.746Z,1.95
2022-08-11T18:10:03.039Z,1.52
2022-08-11T18:12:10.007Z,2.05
2022-08-11T18:14:08.467Z,1.63
2022-08-11T18:16:03.507Z,1.70
2022-08-11T18:17:55.819Z,1.70
2022-08-11T18:19:46.951Z,2.00
2022-08-11T18:21:39.411Z,1.83
2022-08-11T18:23:41.899Z,1.95
2022-08-11T18:25:45.608Z,1.83
2022-08-11T18:27:41.326Z,1.80
2022-08-11T18:29:41.725Z,1.77
2022-08-11T18:31:36.686Z,1.73
2022-08-11T18:35:43.370Z,1.92
2022-08-11T18:37:38.407Z,2.17
2022-08-11T18:39:33.078Z,1.88
2022-08-11T18:41:28.502Z,2.08
2022-08-11T18:43:27.288Z,2.00
2022-08-11T18:45:31.263Z,1.70
2022-08-11T18:47:34.801Z,1.73
2022-08-11T18:50:03.985Z,2.00
2022-08-11T18:51:47.447Z,1.80
2022-08-11T18:53:41.011Z,1.98
2022-08-11T18:55:37.523Z,2.08
2022-08-11T18:57:32.919Z,1.75
2022-08-11T18:59:30.428Z,2.03
2022-08-11T19:01:26.691Z,2.20
2022-08-11T19:03:20.804Z,1.85
2022-08-11T19:05:15.124Z,2.00
2022-08-11T19:07:10.813Z,1.80
2022-08-11T19:09:10.677Z,2.25
2022-08-11T19:11:04.928Z,2.00
2022-08-11T19:13:01.150Z,2.45
2022-08-11T19:14:55.252Z,2.50
2022-08-11T19:16:50.719Z,2.42
2022-08-11T19:18:43.831Z,2.22
2022-08-11T19:20:44.240Z,2.10
2022-08-11T19:22:37.053Z,2.28
2022-08-11T19:24:29.656Z,2.13
2022-08-11T19:26:26.632Z,2.03
2022-08-11T19:28:23.765Z,2.22
2022-08-11T19:30:15.964Z,1.95
2022-08-11T19:32:09.460Z,2.40
2022-08-11T19:34:10.657Z,2.03
2022-08-11T19:36:04.708Z,1.77
2022-08-11T19:37:58.295Z,1.63
2022-08-11T19:39:50.837Z,1.92
2022-08-11T19:41:52.003Z,2.17
2022-08-11T19:43:51.551Z,2.10
2022-08-11T19:45:43.499Z,1.90
2022-08-11T19:47:43.231Z,1.90
2022-08-11T19:49:36.807Z,1.92
2022-08-11T19:51:29.708Z,2.42
2022-08-11T19:53:22.695Z,2.00
2022-08-11T19:55:15.934Z,1.90
2022-08-11T19:57:08.887Z,1.90
2022-08-11T19:59:01.700Z,2.10
2022-08-11T20:00:52.517Z,2.25
2022-08-11T20:02:44.755Z,2.30
2022-08-11T20:04:36.034Z,2.22
2022-08-11T20:06:29.255Z,2.25
2022-08-11T20:08:23.060Z,2.30
2022-08-11T20:10:17.101Z,2.03
2022-08-11T20:12:13.626Z,2.22
2022-08-11T20:14:12.187Z,2.47
2022-08-11T20:16:05.649Z,2.17
2022-08-11T20:17:59.651Z,2.45
2022-08-11T20:19:57.081Z,2.10
2022-08-11T20:21:49.590Z,2.33
2022-08-11T20:23:41.601Z,2.20
2022-08-11T20:25:36.571Z,2.53
2022-08-11T20:27:29.047Z,2.08
2022-08-11T20:29:21.129Z,2.10
2022-08-11T20:31:14.837Z,2.20
2022-08-11T20:33:09.593Z,2.20
2022-08-11T20:35:03.047Z,2.30
2022-08-11T20:36:57.704Z,2.13
2022-08-11T20:38:52.019Z,2.40
2022-08-11T20:40:44.870Z,2.13
2022-08-11T20:42:41.601Z,2.63
2022-08-11T20:44:34.362Z,2.20
2022-08-11T20:46:26.851Z,2.25
2022-08-11T20:48:23.435Z,2.40
2022-08-11T20:50:20.491Z,2.40
2022-08-11T20:52:12.109Z,2.17
2022-08-11T20:54:08.983Z,2.45
2022-08-11T20:56:06.696Z,2.63
2022-08-11T20:58:05.233Z,2.47
2022-08-11T20:59:57.842Z,2.20
2022-08-11T21:01:52.017Z,2.40
2022-08-11T21:03:52.340Z,2.50
2022-08-11T21:06:08.851Z,2.40
2022-08-11T21:08:08.610Z,2.67
2022-08-11T21:10:09.754Z,2.28
2022-08-11T21:12:06.101Z,2.58
2022-08-11T21:14:01.991Z,2.33
2022-08-11T21:16:01.441Z,2.83
2022-08-11T21:18:00.247Z,2.10
2022-08-11T21:20:10.821Z,2.00
2022-08-11T21:22:10.330Z,2.40
2022-08-11T21:24:03.686Z,2.25
2022-08-11T21:26:09.146Z,2.67
2022-08-11T21:28:02.892Z,2.63
2022-08-11T21:29:57.639Z,2.47
2022-08-11T21:31:52.636Z,2.85
2022-08-11T21:33:46.546Z,2.20
2022-08-11T21:35:41.067Z,2.15
2022-08-11T21:37:39.297Z,2.20
2022-08-11T21:39:39.162Z,2.40
2022-08-11T21:41:31.726Z,2.65
2022-08-11T21:43:26.278Z,2.50
2022-08-11T21:45:21.047Z,2.42
2022-08-11T21:47:17.409Z,2.42
2022-08-11T21:49:13.868Z,2.67
2022-08-11T21:51:08.435Z,2.47
2022-08-11T21:53:01.127Z,2.42
2022-08-11T21:54:52.131Z,2.55
2022-08-11T21:56:45.952Z,2.33
2022-08-11T21:58:37.575Z,2.70
2022-08-11T22:00:30.028Z,2.53
2022-08-11T22:02:21.624Z,3.13
2022-08-11T22:04:13.091Z,2.80
2022-08-11T22:06:04.451Z,2.40
2022-08-11T22:07:59.051Z,2.80
2022-08-11T22:09:51.372Z,2.65
2022-08-11T22:11:43.086Z,2.78
2022-08-11T22:13:34.937Z,3.08
2022-08-11T22:15:28.327Z,2.78
2022-08-11T22:17:19.111Z,2.70
2022-08-11T22:19:13.198Z,2.80
2022-08-11T22:21:08.063Z,2.60
2022-08-11T22:23:02.017Z,2.42
2022-08-11T22:24:56.558Z,2.40
2022-08-11T22:26:53.018Z,2.90
2022-08-11T22:28:44.468Z,2.80
2022-08-11T22:30:35.719Z,2.97
2022-08-11T22:32:30.078Z,2.95
2022-08-11T22:34:22.363Z,2.78
2022-08-11T22:36:14.827Z,2.78
2022-08-11T22:38:08.948Z,2.60
2022-08-11T22:40:02.349Z,3.10
2022-08-11T22:41:56.984Z,3.03
2022-08-11T22:43:48.371Z,2.83
2022-08-11T22:45:39.880Z,3.00
2022-08-11T22:47:38.462Z,2.65
2022-08-11T22:49:56.111Z,2.67
2022-08-11T22:51:45.932Z,2.70
2022-08-11T22:53:58.051Z,2.67
2022-08-11T22:55:50.163Z,3.00
2022-08-11T22:58:00.914Z,2.53
2022-08-11T22:59:54.890Z,2.90
2022-08-11T23:01:56.152Z,3.08
2022-08-11T23:03:50.232Z,3.08
2022-08-11T23:05:41.808Z,2.95
2022-08-11T23:07:50.171Z,2.47
2022-08-11T23:09:44.455Z,2.95
2022-08-11T23:11:57.685Z,2.92
2022-08-11T23:13:53.338Z,2.70
2022-08-11T23:15:45.381Z,2.88
2022-08-11T23:17:36.427Z,2.95
2022-08-11T23:20:06.485Z,2.53
2022-08-11T23:21:40.064Z,3.13
2022-08-11T23:23:32.522Z,2.90
2022-08-11T23:25:27.936Z,2.75
2022-08-11T23:27:24.366Z,2.72
2022-08-11T23:29:17.172Z,2.90
2022-08-11T23:31:18.575Z,2.60
2022-08-11T23:33:15.228Z,3.00
2022-08-11T23:35:38.516Z,2.78
2022-08-11T23:37:24.974Z,2.90
2022-08-11T23:39:17.574Z,2.92
2022-08-11T23:41:10.994Z,3.00
2022-08-11T23:43:02.087Z,2.90
2022-08-11T23:44:52.996Z,2.63
2022-08-11T23:46:46.131Z,2.65
2022-08-11T23:48:41.975Z,2.78
2022-08-11T23:50:32.922Z,3.45
2022-08-11T23:52:25.480Z,3.03
2022-08-11T23:54:18.606Z,3.17
2022-08-11T23:56:11.126Z,2.97
2022-08-11T23:58:02.992Z,2.63
2022-08-11T23:59:54.391Z,2.70
